Time;durP1;ratioP1;P1;durP2;ratioP2;P2;SDS_P1;SDS_P2;PMS_P1;PMS_P2;Temp;Humidity;BMP_temperature;BMP_pressure;BME280_temperature;BME280_humidity;BME280_pressure;Samples;Min_cycle;Max_cycle;Signal;HPM_P1;HPM_P2
2022/04/10 00:00:22;;;;;;;12.30;6.93;;;;;;;1.62;82.18;101683.06;5030823;28;20034;-86
2022/04/10 00:02:48;;;;;;;12.25;7.90;;;;;;;1.70;82.68;101690.94;5028512;28;20441;-86
2022/04/10 00:05:13;;;;;;;18.20;7.60;;;;;;;1.73;82.28;101697.06;5033172;28;20072;-86
2022/04/10 00:07:39;;;;;;;12.65;7.85;;;;;;;1.71;82.26;101688.34;5035760;28;20044;-86
2022/04/10 00:10:05;;;;;;;12.48;7.45;;;;;;;1.83;81.98;101697.03;5017647;28;20033;-85
2022/04/10 00:12:34;;;;;;;14.95;8.23;;;;;;;1.91;82.28;101690.91;5029469;28;20029;-86
2022/04/10 00:15:00;;;;;;;16.02;7.85;;;;;;;1.96;82.51;101698.78;5030179;28;20053;-86
2022/04/10 00:17:26;;;;;;;16.02;8.02;;;;;;;1.94;82.42;101688.28;5032785;28;20036;-86
2022/04/10 00:19:51;;;;;;;12.95;9.70;;;;;;;1.92;82.70;101684.81;5032046;28;20033;-86
2022/04/10 00:22:16;;;;;;;14.82;8.80;;;;;;;1.94;82.66;101675.16;5031465;28;20490;-86
2022/04/10 00:24:41;;;;;;;12.95;8.20;;;;;;;1.97;82.67;101688.28;5026700;28;20065;-87
2022/04/10 00:27:07;;;;;;;14.82;9.13;;;;;;;1.93;82.88;101685.66;5012192;28;20071;-87
2022/04/10 00:29:32;;;;;;;17.38;9.63;;;;;;;1.96;82.57;101689.13;5006213;28;20045;-86
2022/04/10 00:31:59;;;;;;;15.57;8.18;;;;;;;1.92;82.61;101681.28;5025665;28;20037;-86
2022/04/10 00:34:24;;;;;;;11.65;8.18;;;;;;;1.96;82.82;101690.91;5028884;28;21661;-86
2022/04/10 00:36:49;;;;;;;14.93;8.68;;;;;;;1.93;82.73;101683.91;5028225;28;20041;-86
2022/04/10 00:39:15;;;;;;;19.45;9.13;;;;;;;1.88;82.68;101677.81;5023281;28;20579;-86
2022/04/10 00:41:40;;;;;;;12.82;8.30;;;;;;;1.87;82.67;101685.66;5030767;28;20075;-86
2022/04/10 00:44:15;;;;;;;18.05;9.27;;;;;;;1.81;83.08;101678.69;5022057;28;20042;-86
2022/04/10 00:46:41;;;;;;;14.40;9.10;;;;;;;1.78;83.34;101680.44;5029661;28;20029;-86
2022/04/10 00:49:07;;;;;;;13.70;8.25;;;;;;;1.73;83.04;101677.81;5018385;28;20022;-87
2022/04/10 00:51:40;;;;;;;13.68;7.60;;;;;;;1.70;83.38;101685.69;5022028;28;20037;-87
2022/04/10 00:54:15;;;;;;;13.30;9.05;;;;;;;1.62;83.47;101676.94;5016065;28;20030;-87
2022/04/10 00:56:42;;;;;;;18.23;9.13;;;;;;;1.63;83.62;101678.69;5010170;28;20486;-86
2022/04/10 00:59:08;;;;;;;15.25;8.88;;;;;;;1.61;83.44;101681.31;5007305;28;20052;-86
2022/04/10 01:01:34;;;;;;;12.48;7.75;;;;;;;1.59;83.79;101680.47;5026499;28;20033;-86
2022/04/10 01:04:00;;;;;;;15.25;8.02;;;;;;;1.54;83.74;101670.81;5027776;28;20087;-88
2022/04/10 01:06:26;;;;;;;14.50;8.55;;;;;;;1.53;83.53;101677.81;5028787;28;20081;-87
2022/04/10 01:08:52;;;;;;;17.58;9.00;;;;;;;1.52;83.84;101668.22;5027230;28;20117;-87
2022/04/10 01:11:17;;;;;;;13.68;8.45;;;;;;;1.48;83.88;101664.72;5021746;28;20025;-85
2022/04/10 01:13:44;;;;;;;15.75;8.68;;;;;;;1.48;84.08;101672.59;5026733;28;20049;-86
2022/04/10 01:16:10;;;;;;;15.70;8.77;;;;;;;1.51;84.01;101678.72;5025383;28;20034;-86
2022/04/10 01:18:36;;;;;;;13.82;8.52;;;;;;;1.45;83.93;101669.09;5022331;28;20643;-86
2022/04/10 01:21:03;;;;;;;18.35;9.43;;;;;;;1.45;83.90;101675.19;5030356;28;20436;-87
2022/04/10 01:23:29;;;;;;;16.63;9.23;;;;;;;1.41;84.08;101675.19;5021568;28;20034;-87
2022/04/10 01:25:54;;;;;;;17.17;9.38;;;;;;;1.39;84.28;101666.47;5021101;28;20040;-87
2022/04/10 01:28:19;;;;;;;15.75;8.75;;;;;;;1.39;84.32;101662.09;5012230;28;20037;-87
2022/04/10 01:30:45;;;;;;;16.00;9.43;;;;;;;1.44;84.56;101667.34;5028847;28;20041;-87
2022/04/10 01:33:10;;;;;;;17.40;9.10;;;;;;;1.46;84.78;101665.56;5027790;28;20033;-86
2022/04/10 01:35:37;;;;;;;15.60;8.95;;;;;;;1.54;84.47;101673.44;5013911;28;20030;-86
2022/04/10 01:38:05;;;;;;;14.65;9.13;;;;;;;1.64;84.56;101670.84;5029256;28;20059;-86
2022/04/10 01:40:31;;;;;;;13.82;9.05;;;;;;;1.66;84.11;101668.19;5013194;28;20045;-86
2022/04/10 01:42:57;;;;;;;17.05;9.60;;;;;;;1.70;84.10;101669.94;5011254;28;20060;-86
2022/04/10 01:45:22;;;;;;;20.02;9.45;;;;;;;1.81;84.10;101672.56;5001696;28;20049;-87
2022/04/10 01:47:51;;;;;;;16.58;9.65;;;;;;;1.85;84.11;101679.56;5028416;28;20099;-86
2022/04/10 01:50:17;;;;;;;18.77;9.60;;;;;;;1.88;83.94;101683.06;5022335;28;20045;-86
2022/04/10 01:52:42;;;;;;;15.52;9.82;;;;;;;1.90;83.70;101683.91;5028553;28;20291;-86
2022/04/10 01:55:08;;;;;;;13.95;9.52;;;;;;;1.88;83.68;101685.69;5013319;28;20085;-86
2022/04/10 01:57:33;;;;;;;15.52;10.23;;;;;;;1.86;83.82;101676.91;5023746;28;20109;-85
2022/04/10 01:59:59;;;;;;;15.80;9.63;;;;;;;1.92;83.38;101692.69;5012417;28;20033;-88
2022/04/10 02:02:24;;;;;;;16.60;10.10;;;;;;;1.91;83.41;101695.28;5030583;28;20081;-87
2022/04/10 02:04:51;;;;;;;18.92;10.18;;;;;;;1.90;84.03;101693.53;5025411;28;20048;-88
2022/04/10 02:07:17;;;;;;;18.10;10.45;;;;;;;1.84;83.56;101689.19;5029032;28;20450;-87
2022/04/10 02:09:42;;;;;;;23.77;10.20;;;;;;;1.85;83.69;101701.44;5027089;28;20095;-86
2022/04/10 02:12:08;;;;;;;17.92;10.27;;;;;;;1.78;83.64;101693.56;5026930;28;20089;-87
2022/04/10 02:14:33;;;;;;;15.77;9.77;;;;;;;1.77;83.98;101697.94;5028407;28;20274;-87
2022/04/10 02:16:59;;;;;;;16.08;9.95;;;;;;;1.69;83.80;101694.44;5026248;28;20112;-86
2022/04/10 02:19:24;;;;;;;16.33;9.43;;;;;;;1.64;84.14;101696.19;5011183;28;20022;-87
2022/04/10 02:21:49;;;;;;;16.83;10.00;;;;;;;1.60;84.50;101704.94;5029618;28;20497;-86
2022/04/10 02:24:15;;;;;;;21.77;10.25;;;;;;;1.55;84.25;101696.19;5022579;28;20045;-86
2022/04/10 02:26:41;;;;;;;14.75;9.73;;;;;;;1.46;84.32;101690.09;5011358;28;20052;-86
2022/04/10 02:29:06;;;;;;;17.25;10.18;;;;;;;1.39;84.57;101687.47;5020932;28;20029;-86
2022/04/10 02:31:31;;;;;;;18.27;9.40;;;;;;;1.37;85.07;101692.69;5030075;28;20509;-85
2022/04/10 02:33:57;;;;;;;17.25;9.93;;;;;;;1.35;85.05;101697.06;5027485;28;20029;-85
2022/04/10 02:36:22;;;;;;;16.55;9.85;;;;;;;1.28;85.11;101691.81;5031031;28;20048;-86
2022/04/10 02:38:47;;;;;;;17.15;10.07;;;;;;;1.27;85.33;101701.44;5010832;28;20030;-87
2022/04/10 02:41:13;;;;;;;15.50;10.27;;;;;;;1.25;85.27;101705.78;5028357;28;20382;-87
2022/04/10 02:43:39;;;;;;;13.52;10.18;;;;;;;1.19;85.34;101703.16;5027830;28;20048;-86
2022/04/10 02:46:05;;;;;;;15.63;9.95;;;;;;;1.13;85.76;101695.28;5013491;28;20033;-87
2022/04/10 02:48:31;;;;;;;18.05;9.30;;;;;;;1.16;85.86;101698.78;5021339;28;20037;-87
2022/04/10 02:50:56;;;;;;;15.93;9.63;;;;;;;1.11;85.73;101699.66;5010053;28;20090;-87
2022/04/10 02:53:21;;;;;;;18.35;10.38;;;;;;;1.10;86.19;101711.03;5025440;28;20025;-86
2022/04/10 02:55:46;;;;;;;15.20;9.50;;;;;;;1.07;86.41;101714.50;5026039;28;20055;-86
2022/04/10 02:58:12;;;;;;;15.48;9.75;;;;;;;1.03;86.37;101707.50;5008025;28;20402;-85
2022/04/10 03:00:37;;;;;;;15.60;9.90;;;;;;;1.02;86.61;101712.75;5026191;28;20033;-86
2022/04/10 03:03:02;;;;;;;18.98;9.93;;;;;;;0.95;86.50;101717.97;5023772;28;20030;-85
2022/04/10 03:05:28;;;;;;;13.60;10.00;;;;;;;0.92;86.76;101725.84;5011014;28;20067;-86
2022/04/10 03:07:53;;;;;;;13.57;9.85;;;;;;;0.83;86.80;101715.31;5024811;28;20410;-86
2022/04/10 03:10:18;;;;;;;15.85;10.00;;;;;;;0.84;86.95;101726.69;5029009;28;20052;-86
2022/04/10 03:12:43;;;;;;;14.73;9.23;;;;;;;0.73;87.10;101710.91;5016152;28;20140;-87
2022/04/10 03:15:09;;;;;;;16.10;10.13;;;;;;;0.72;86.92;101728.38;5023836;28;21301;-87
2022/04/10 03:17:34;;;;;;;17.27;9.80;;;;;;;0.73;87.33;101726.63;5008579;28;20037;-87
2022/04/10 03:20:00;;;;;;;18.60;10.15;;;;;;;0.71;87.49;101731.88;5021042;28;20128;-87
2022/04/10 03:22:25;;;;;;;15.00;10.88;;;;;;;0.67;87.49;101723.97;5024017;28;20026;-86
2022/04/10 03:24:50;;;;;;;17.38;10.40;;;;;;;0.64;88.18;101724.88;5019849;28;20041;-86
2022/04/10 03:27:15;;;;;;;16.70;10.13;;;;;;;0.63;87.91;101724.88;5017086;28;20027;-86
2022/04/10 03:29:41;;;;;;;15.02;10.80;;;;;;;0.62;87.93;101733.56;5015934;28;20021;-86
2022/04/10 03:32:06;;;;;;;16.42;10.27;;;;;;;0.58;87.66;101730.06;5018330;28;20076;-87
2022/04/10 03:34:32;;;;;;;15.45;9.80;;;;;;;0.53;87.98;101739.66;5000150;28;20033;-86
2022/04/10 03:36:57;;;;;;;14.27;10.40;;;;;;;0.49;87.72;101736.13;5019368;28;20026;-88
2022/04/10 03:39:22;;;;;;;14.82;10.80;;;;;;;0.40;88.30;101736.09;5013816;28;20061;-86
2022/04/10 03:41:48;;;;;;;16.20;10.65;;;;;;;0.38;88.55;101743.09;5012311;28;20029;-85
2022/04/10 03:44:13;;;;;;;16.65;10.57;;;;;;;0.32;88.35;101727.31;4994961;28;20032;-85
2022/04/10 03:46:38;;;;;;;18.70;11.07;;;;;;;0.23;88.39;101725.53;4992498;28;20160;-85
2022/04/10 03:49:04;;;;;;;17.80;10.88;;;;;;;0.29;88.92;101739.53;5008414;28;20690;-86
2022/04/10 03:51:30;;;;;;;19.20;10.82;;;;;;;0.24;89.09;101735.13;4993004;28;20041;-86
2022/04/10 03:53:55;;;;;;;15.18;10.13;;;;;;;0.25;89.50;101749.09;5010180;28;20589;-86
2022/04/10 03:56:20;;;;;;;15.98;10.38;;;;;;;0.24;89.12;101748.22;4999685;28;20127;-85
2022/04/10 03:58:46;;;;;;;20.63;10.80;;;;;;;0.21;89.23;101744.75;5025934;28;20104;-87
2022/04/10 04:01:11;;;;;;;18.52;11.50;;;;;;;0.22;89.26;101749.97;5021173;28;20026;-86
2022/04/10 04:03:37;;;;;;;18.42;11.00;;;;;;;0.15;89.49;101739.44;5019034;28;20030;-86
2022/04/10 04:06:03;;;;;;;15.50;10.38;;;;;;;0.21;89.63;101756.09;5024689;28;20053;-87
2022/04/10 04:08:28;;;;;;;15.25;9.88;;;;;;;0.16;90.08;101741.19;5007560;28;20423;-87
2022/04/10 04:10:53;;;;;;;18.17;10.60;;;;;;;0.21;90.45;101753.47;5020644;28;20073;-85
2022/04/10 04:13:18;;;;;;;18.15;10.68;;;;;;;0.27;90.61;101754.38;5024862;28;20022;-86
2022/04/10 04:15:44;;;;;;;16.25;10.27;;;;;;;0.23;90.20;101749.09;5029713;28;20033;-85
2022/04/10 04:18:09;;;;;;;15.35;9.52;;;;;;;0.23;89.77;101749.09;5029394;28;20033;-86
2022/04/10 04:20:34;;;;;;;18.77;10.27;;;;;;;0.26;89.97;101752.63;5026940;28;20037;-86
2022/04/10 04:23:00;;;;;;;13.80;9.52;;;;;;;0.29;90.02;101758.72;5027348;28;20026;-86
2022/04/10 04:25:25;;;;;;;11.27;9.07;;;;;;;0.22;89.82;101749.09;5025781;28;20103;-85
2022/04/10 04:27:50;;;;;;;14.18;10.02;;;;;;;0.28;89.87;101764.84;5009280;28;20851;-85
2022/04/10 04:30:16;;;;;;;16.83;9.65;;;;;;;0.27;90.32;101751.75;5019049;28;20021;-85
2022/04/10 04:32:41;;;;;;;16.00;9.90;;;;;;;0.30;90.59;101757.00;5023622;28;20150;-87
2022/04/10 04:35:07;;;;;;;17.08;10.10;;;;;;;0.34;90.19;101758.78;5027929;28;20048;-86
2022/04/10 04:37:32;;;;;;;16.70;9.80;;;;;;;0.30;89.82;101751.78;5024161;28;20033;-86
2022/04/10 04:39:57;;;;;;;19.83;10.25;;;;;;;0.31;89.49;101764.84;5031286;28;20125;-85
2022/04/10 04:42:23;;;;;;;18.45;10.93;;;;;;;0.28;90.14;101767.44;5024235;28;20034;-86
2022/04/10 04:44:48;;;;;;;16.33;10.45;;;;;;;0.27;89.97;101768.31;5014828;28;20009;-86
2022/04/10 04:47:13;;;;;;;19.83;10.80;;;;;;;0.25;90.24;101762.19;5013099;28;20083;-86
2022/04/10 04:49:39;;;;;;;15.13;10.23;;;;;;;0.18;90.34;101757.81;5027940;28;20637;-86
2022/04/10 04:52:04;;;;;;;17.30;11.40;;;;;;;0.15;90.14;101763.88;5011168;28;20042;-86
2022/04/10 04:54:30;;;;;;;15.55;10.60;;;;;;;0.15;90.17;101770.88;5015987;28;20037;-86
2022/04/10 04:56:56;;;;;;;15.05;10.45;;;;;;;0.09;90.37;101765.59;5023398;28;20045;-86
2022/04/10 04:59:21;;;;;;;14.77;10.70;;;;;;;0.07;90.50;101764.69;5013888;28;20076;-86
2022/04/10 05:01:46;;;;;;;15.90;9.75;;;;;;;0.05;91.11;101763.81;5028213;28;20065;-86
2022/04/10 05:04:11;;;;;;;15.65;10.57;;;;;;;0.09;91.33;101771.72;5031006;28;20046;-86
2022/04/10 05:06:37;;;;;;;17.08;11.55;;;;;;;0.08;91.12;101774.28;5027232;28;20037;-86
2022/04/10 05:09:04;;;;;;;18.10;10.45;;;;;;;0.03;91.48;101771.66;4996109;28;20104;-86
2022/04/10 05:11:29;;;;;;;17.45;10.85;;;;;;;0.07;91.66;101781.28;5025814;28;20491;-86
2022/04/10 05:13:55;;;;;;;19.58;11.23;;;;;;;0.12;91.71;101782.19;5017861;28;20036;-86
2022/04/10 05:16:21;;;;;;;16.33;10.77;;;;;;;0.12;91.46;101778.69;5026734;28;20394;-85
2022/04/10 05:18:47;;;;;;;18.80;11.48;;;;;;;0.14;91.33;101790.94;5012863;28;20481;-86
2022/04/10 05:21:13;;;;;;;19.38;11.57;;;;;;;0.17;91.85;101795.31;5001061;28;20029;-86
2022/04/10 05:23:38;;;;;;;16.75;11.18;;;;;;;0.19;91.19;101790.97;5023815;28;20029;-86
2022/04/10 05:26:03;;;;;;;21.75;10.57;;;;;;;0.23;91.62;101793.59;5020226;28;20048;-85
2022/04/10 05:28:30;;;;;;;23.10;11.68;;;;;;;0.17;91.67;101782.22;5007130;28;20053;-86
2022/04/10 05:30:55;;;;;;;19.73;11.15;;;;;;;0.31;91.80;101804.13;5016563;28;20168;-87
2022/04/10 05:33:20;;;;;;;16.70;10.93;;;;;;;0.32;91.49;101803.25;5026917;28;20056;-85
2022/04/10 05:35:47;;;;;;;17.42;11.57;;;;;;;0.32;91.51;101805.88;5017640;28;20030;-87
2022/04/10 05:38:12;;;;;;;19.08;11.77;;;;;;;0.36;91.58;101812.91;5028779;28;20036;-87
2022/04/10 05:40:38;;;;;;;16.50;10.35;;;;;;;0.34;91.53;101812.03;5032463;28;20037;-87
2022/04/10 05:43:03;;;;;;;17.40;11.55;;;;;;;0.44;91.79;101824.28;5028022;28;20395;-87
2022/04/10 05:45:28;;;;;;;15.13;11.30;;;;;;;0.50;91.66;101820.81;5008658;28;20037;-86
2022/04/10 05:47:54;;;;;;;16.55;11.07;;;;;;;0.51;91.84;101814.75;5028671;28;20029;-86
2022/04/10 05:50:19;;;;;;;19.67;11.35;;;;;;;0.62;91.76;101833.13;5032552;28;20075;-87
2022/04/10 05:52:47;;;;;;;19.67;11.35;;;;;;;0.68;91.70;101825.31;5025835;28;20030;-86
2022/04/10 05:55:15;;;;;;;18.67;11.20;;;;;;;0.76;91.23;101833.22;5020558;28;20034;-87
2022/04/10 05:57:41;;;;;;;16.52;11.55;;;;;;;0.87;92.00;101835.00;5009026;28;20076;-87
2022/04/10 06:00:10;;;;;;;17.25;11.43;;;;;;;1.08;91.76;101843.84;5019014;28;20033;-86
2022/04/10 06:02:36;;;;;;;20.02;11.52;;;;;;;1.33;91.21;101845.69;5005856;28;20033;-86
2022/04/10 06:05:02;;;;;;;21.30;12.70;;;;;;;1.59;90.46;101843.16;5007636;28;20118;-87
2022/04/10 06:07:27;;;;;;;18.85;11.18;;;;;;;1.91;89.62;101852.81;5023316;28;20056;-86
2022/04/10 06:09:52;;;;;;;19.35;11.55;;;;;;;2.21;88.86;101854.56;5028387;28;20025;-86
2022/04/10 06:12:18;;;;;;;18.95;11.27;;;;;;;2.49;87.98;101861.56;5024637;28;20025;-85
2022/04/10 06:14:43;;;;;;;19.10;11.25;;;;;;;2.69;86.75;101860.66;5006100;28;20516;-86
2022/04/10 06:17:08;;;;;;;19.02;10.63;;;;;;;2.88;85.46;101857.06;5018178;28;20036;-84
2022/04/10 06:19:34;;;;;;;17.27;10.73;;;;;;;3.08;84.97;101858.78;5022463;28;20300;-85
2022/04/10 06:21:59;;;;;;;17.65;10.68;;;;;;;3.25;84.50;101857.81;5023970;28;20034;-86
2022/04/10 06:24:27;;;;;;;17.33;11.13;;;;;;;3.48;83.43;101875.28;5024437;28;20117;-85
2022/04/10 06:26:53;;;;;;;14.27;9.52;;;;;;;3.65;82.33;101868.16;5012608;28;20099;-86
2022/04/10 06:29:18;;;;;;;19.60;10.63;;;;;;;3.78;82.22;101870.72;5027718;28;20120;-87
2022/04/10 06:31:43;;;;;;;12.82;9.73;;;;;;;3.86;80.96;101872.41;5002676;28;20046;-87
2022/04/10 06:34:09;;;;;;;14.00;9.57;;;;;;;4.02;80.95;101867.91;5028079;28;20063;-87
2022/04/10 06:36:34;;;;;;;17.77;10.07;;;;;;;4.25;81.08;101880.91;5010104;28;20057;-87
2022/04/10 06:38:59;;;;;;;15.63;9.40;;;;;;;4.38;79.03;101873.75;5030171;28;20030;-87
2022/04/10 06:41:25;;;;;;;15.15;9.35;;;;;;;4.59;79.43;101877.97;5023856;28;20041;-86
2022/04/10 06:43:50;;;;;;;14.82;9.73;;;;;;;4.81;77.90;101886.53;5021779;28;20026;-87
2022/04/10 06:46:16;;;;;;;18.38;9.90;;;;;;;4.96;78.01;101887.25;5027379;28;20041;-87
2022/04/10 06:48:41;;;;;;;16.67;8.77;;;;;;;5.14;75.77;101887.91;5024698;28;20033;-86
2022/04/10 06:51:06;;;;;;;13.85;8.80;;;;;;;5.33;75.46;101894.72;5008009;28;20037;-87
2022/04/10 06:53:31;;;;;;;13.85;9.00;;;;;;;5.41;74.67;101886.72;5007239;28;20037;-88
2022/04/10 06:55:57;;;;;;;14.25;8.57;;;;;;;5.57;73.51;101898.84;5024350;28;20071;-86
2022/04/10 06:58:22;;;;;;;12.68;8.40;;;;;;;5.60;73.29;101879.41;5027826;28;20553;-86
2022/04/10 07:00:53;;;;;;;14.35;8.82;;;;;;;5.92;73.05;101897.50;5009677;28;20030;-86
2022/04/10 07:03:19;;;;;;;12.73;8.57;;;;;;;6.05;72.08;101885.84;5023871;28;20048;-86
2022/04/10 07:05:44;;;;;;;14.50;9.30;;;;;;;6.31;72.14;101896.00;5026244;28;20057;-86
2022/04/10 07:08:10;;;;;;;13.07;8.50;;;;;;;6.52;71.68;101904.47;5029565;28;20032;-86
2022/04/10 07:10:38;;;;;;;9.15;7.45;;;;;;;6.71;68.99;101895.31;4992263;28;20511;-86
2022/04/10 07:13:03;;;;;;;11.27;6.95;;;;;;;6.89;67.63;101894.97;5011183;28;20253;-86
2022/04/10 07:15:30;;;;;;;9.73;6.85;;;;;;;7.16;67.49;101896.22;5026725;28;20041;-87
2022/04/10 07:17:56;;;;;;;10.50;5.90;;;;;;;7.40;65.13;101900.16;5029447;28;20144;-87
2022/04/10 07:20:22;;;;;;;12.10;6.70;;;;;;;7.55;65.05;101901.59;5007510;28;20036;-86
2022/04/10 07:25:32;;;;;;;11.45;6.57;;;;;;;8.07;64.07;101894.22;5020418;28;20501;-86
2022/04/10 07:27:57;;;;;;;11.68;7.15;;;;;;;8.31;63.55;101898.94;5028451;28;20508;-87
2022/04/10 07:30:22;;;;;;;12.65;7.07;;;;;;;8.66;62.28;101911.38;5021269;28;20030;-87
2022/04/10 07:32:54;;;;;;;12.60;7.20;;;;;;;8.88;60.92;101910.81;5021302;28;20032;-86
2022/04/10 07:35:21;;;;;;;13.10;6.97;;;;;;;9.11;58.88;101920.78;5005948;28;20042;-86
2022/04/10 07:37:49;;;;;;;13.82;7.22;;;;;;;9.35;59.12;101917.44;5023154;28;20029;-89
2022/04/10 07:40:15;;;;;;;14.27;6.93;;;;;;;9.66;57.82;101916.56;5025258;28;20484;-85
2022/04/10 07:42:43;;;;;;;8.80;5.63;;;;;;;10.03;57.53;101916.28;5021684;28;20040;-88
2022/04/10 07:45:10;;;;;;;8.98;6.28;;;;;;;10.50;56.58;101913.06;5020902;28;20044;-88
2022/04/10 07:47:35;;;;;;;11.35;7.90;;;;;;;10.98;55.23;101906.03;5022892;28;20030;-88
2022/04/10 07:50:00;;;;;;;9.38;6.32;;;;;;;11.45;52.11;101922.09;5029110;28;20410;-88
2022/04/10 07:52:26;;;;;;;11.32;6.35;;;;;;;11.76;52.43;101928.06;5029829;28;20821;-88
2022/04/10 07:54:54;;;;;;;23.05;11.65;;;;;;;11.87;50.40;101928.53;5029531;28;20033;-88
2022/04/10 07:57:19;;;;;;;11.93;5.88;;;;;;;12.07;48.57;101933.94;5026889;28;20037;-87
2022/04/10 07:59:45;;;;;;;11.48;5.72;;;;;;;12.25;48.76;101932.38;5030001;28;20045;-87
2022/04/10 08:02:11;;;;;;;8.73;4.65;;;;;;;12.57;47.56;101932.81;5032612;28;20026;-88
2022/04/10 08:04:37;;;;;;;5.53;3.42;;;;;;;12.87;46.41;101947.53;5010028;28;20164;-88
2022/04/10 08:07:02;;;;;;;5.03;2.70;;;;;;;13.43;45.12;101944.22;5025044;28;20033;-87
2022/04/10 08:09:28;;;;;;;8.52;3.83;;;;;;;13.74;43.87;101939.25;5022269;28;20179;-87
2022/04/10 08:11:54;;;;;;;8.05;3.47;;;;;;;14.05;43.49;101957.44;5015616;28;20479;-87
2022/04/10 08:14:19;;;;;;;6.95;3.47;;;;;;;14.08;42.65;101943.88;5030802;28;20029;-88
2022/04/10 08:16:45;;;;;;;7.72;3.90;;;;;;;14.28;42.23;101951.81;5023783;28;20113;-87
2022/04/10 08:19:10;;;;;;;7.93;3.72;;;;;;;14.52;41.77;101954.28;5009901;28;20055;-87
2022/04/10 08:21:35;;;;;;;8.15;3.20;;;;;;;14.24;40.34;101963.63;5015524;28;20037;-87
2022/04/10 08:24:01;;;;;;;5.85;2.85;;;;;;;13.51;42.07;101957.25;5025438;28;20098;-86
2022/04/10 08:26:26;;;;;;;8.20;3.20;;;;;;;14.19;40.66;101963.84;5027130;28;20041;-87
2022/04/10 08:28:51;;;;;;;7.53;2.67;;;;;;;14.55;39.14;101956.81;5020908;28;20489;-87
2022/04/10 08:31:17;;;;;;;7.72;2.80;;;;;;;14.04;39.67;101959.22;5006730;28;20382;-87
2022/04/10 08:33:42;;;;;;;6.82;2.92;;;;;;;14.18;41.51;101961.25;4996688;28;20521;-89
2022/04/10 08:36:08;;;;;;;8.20;3.30;;;;;;;14.66;38.76;101954.44;4998937;28;20034;-88
2022/04/10 08:38:34;;;;;;;5.72;3.10;;;;;;;14.86;39.15;101959.66;5021849;28;20120;-89
2022/04/10 08:41:01;;;;;;;6.07;3.28;;;;;;;14.31;39.38;101966.88;5001152;28;20041;-88
2022/04/10 08:43:28;;;;;;;4.57;2.22;;;;;;;13.37;38.35;101955.19;5015913;28;20361;-88
2022/04/10 08:45:57;;;;;;;4.78;2.35;;;;;;;12.28;40.38;101976.72;5016326;28;20111;-87
2022/04/10 08:48:26;;;;;;;4.82;2.05;;;;;;;11.11;43.23;101974.84;5019011;28;20125;-87
2022/04/10 08:50:57;;;;;;;6.13;2.30;;;;;;;11.77;43.58;101969.81;5015503;28;20076;-87
2022/04/10 08:53:24;;;;;;;5.47;2.80;;;;;;;13.40;41.71;101971.09;5019191;28;20025;-87
2022/04/10 08:55:50;;;;;;;5.25;2.90;;;;;;;14.99;39.19;101970.63;5020315;28;20055;-86
2022/04/10 08:58:16;;;;;;;7.78;4.13;;;;;;;15.12;36.85;101963.69;5014645;28;20025;-86
2022/04/10 09:00:43;;;;;;;9.90;3.05;;;;;;;14.18;36.47;101972.84;5018382;28;20022;-88
2022/04/10 09:03:08;;;;;;;5.93;2.25;;;;;;;13.17;37.86;101972.09;5013464;28;20020;-88
2022/04/10 09:05:33;;;;;;;5.95;2.30;;;;;;;12.31;39.38;101989.97;5019164;28;20060;-87
2022/04/10 09:08:07;;;;;;;8.73;2.67;;;;;;;11.59;42.32;101987.38;5019133;28;20353;-86
2022/04/10 09:10:52;;;;;;;8.18;2.53;;;;;;;10.81;44.38;101982.13;5017504;28;20022;-86
2022/04/10 09:13:28;;;;;;;6.90;2.20;;;;;;;10.25;45.40;101998.16;5016497;28;20433;-86
2022/04/10 09:16:01;;;;;;;5.28;2.90;;;;;;;9.68;49.12;101979.41;5024651;28;20032;-86
2022/04/10 09:18:27;;;;;;;8.82;3.38;;;;;;;10.28;50.18;101998.03;5017827;28;20040;-86
2022/04/10 09:21:07;;;;;;;7.30;2.95;;;;;;;12.16;47.20;101989.66;5025829;28;20029;-86
2022/04/10 09:23:33;;;;;;;7.53;3.13;;;;;;;14.36;41.48;101992.50;5026235;28;20390;-86
2022/04/10 09:25:59;;;;;;;7.80;2.97;;;;;;;15.12;38.99;101985.13;5021830;28;20044;-86
2022/04/10 09:28:44;;;;;;;6.97;2.70;;;;;;;15.00;39.84;101993.81;5025124;28;20030;-86
2022/04/10 09:31:25;;;;;;;9.32;2.97;;;;;;;13.93;41.16;101994.53;5024288;28;20067;-86
2022/04/10 09:33:52;;;;;;;7.30;3.00;;;;;;;15.28;38.82;101987.88;5015130;28;20043;-86
2022/04/10 09:36:33;;;;;;;6.30;2.60;;;;;;;17.42;36.73;101991.84;5028964;28;20033;-86
2022/04/10 09:39:00;;;;;;;6.78;2.72;;;;;;;18.81;31.63;101970.41;5028874;28;20053;-87
2022/04/10 09:41:25;;;;;;;7.47;2.30;;;;;;;20.06;29.47;101969.69;5012918;28;20208;-86
2022/04/10 09:43:51;;;;;;;4.47;2.00;;;;;;;21.01;27.87;101969.84;5029341;28;20034;-87
2022/04/10 09:46:16;;;;;;;6.55;2.40;;;;;;;21.64;27.98;101976.63;5027862;28;20136;-86
2022/04/10 09:48:41;;;;;;;6.07;2.08;;;;;;;22.46;26.91;101977.19;5030168;28;20083;-86
2022/04/10 09:51:10;;;;;;;6.80;2.05;;;;;;;22.60;25.55;101981.44;4991533;28;20458;-86
2022/04/10 09:53:36;;;;;;;6.05;1.88;;;;;;;22.42;24.01;101981.13;5022842;28;20072;-87
2022/04/10 09:56:03;;;;;;;4.10;2.05;;;;;;;22.68;25.23;101984.38;5029948;28;20025;-86
2022/04/10 09:58:30;;;;;;;9.07;5.43;;;;;;;23.17;24.01;101977.53;5021213;28;20033;-86
2022/04/10 10:00:57;;;;;;;4.43;2.10;;;;;;;23.92;24.01;101973.66;5023032;28;20572;-86
2022/04/10 10:03:28;;;;;;;4.90;1.92;;;;;;;24.21;22.07;101972.91;5023070;28;20048;-86
2022/04/10 10:05:55;;;;;;;5.43;2.72;;;;;;;24.52;21.28;101973.69;5021369;28;20144;-86
2022/04/10 10:08:21;;;;;;;6.57;2.10;;;;;;;24.20;21.04;101980.16;5026064;28;20056;-86
2022/04/10 10:10:47;;;;;;;4.85;1.98;;;;;;;24.17;21.50;101966.00;5024457;28;20030;-87
2022/04/10 10:13:13;;;;;;;4.40;1.95;;;;;;;24.32;21.04;101973.59;5021655;28;20999;-86
2022/04/10 10:15:40;;;;;;;5.57;1.77;;;;;;;24.79;20.68;101960.25;5029235;28;20022;-87
2022/04/10 10:18:07;;;;;;;4.60;1.83;;;;;;;25.78;20.42;101963.50;5027800;28;20080;-87
2022/04/10 10:20:34;;;;;;;1.98;1.65;;;;;;;24.19;21.61;101961.28;5024423;28;20141;-87
2022/04/10 10:23:01;;;;;;;4.38;1.92;;;;;;;22.50;20.65;101969.66;5016594;28;20473;-88
2022/04/10 10:25:35;;;;;;;5.00;2.03;;;;;;;19.74;25.25;101980.13;5027768;28;20492;-88
2022/04/10 10:28:12;;;;;;;4.45;2.03;;;;;;;17.42;27.79;101974.84;5030250;28;20037;-86
2022/04/10 10:31:17;;;;;;;3.75;2.05;;;;;;;16.16;31.23;101981.34;5025583;28;20030;-86
2022/04/10 10:33:51;;;;;;;3.85;1.48;;;;;;;17.50;27.84;101975.22;5025874;28;20518;-87
2022/04/10 10:36:26;;;;;;;4.55;1.52;;;;;;;18.75;25.91;101969.00;5029601;28;20056;-87
2022/04/10 10:38:53;;;;;;;1.17;1.05;;;;;;;17.23;24.77;101966.19;5021041;28;20345;-87
2022/04/10 10:41:18;;;;;;;5.57;2.58;;;;;;;17.66;26.62;101972.47;5011419;28;20037;-88
2022/04/10 10:43:45;;;;;;;3.67;1.87;;;;;;;19.89;25.01;101956.53;5019277;28;20109;-85
2022/04/10 10:46:22;;;;;;;5.90;2.47;;;;;;;22.20;23.58;101962.22;5012964;28;20303;-89
2022/04/10 10:48:50;;;;;;;3.00;1.50;;;;;;;23.72;20.47;101964.56;5021802;28;20032;-90
2022/04/10 10:51:15;;;;;;;5.07;1.90;;;;;;;25.08;20.15;101959.31;5015399;28;20037;-89
2022/04/10 10:53:44;;;;;;;3.47;1.60;;;;;;;25.22;19.10;101960.78;5010523;28;20037;-90
2022/04/10 10:56:19;;;;;;;4.07;1.75;;;;;;;22.79;20.53;101967.19;5032084;28;20304;-83
2022/04/10 10:58:46;;;;;;;3.13;1.40;;;;;;;21.40;22.21;101971.28;5026764;28;20371;-88
2022/04/10 11:01:18;;;;;;;3.67;1.85;;;;;;;20.68;23.96;101974.13;5026713;28;20039;-92
2022/04/10 11:04:02;;;;;;;5.25;2.00;;;;;;;18.66;26.25;101962.34;5030302;28;20057;-88
2022/04/10 11:06:29;;;;;;;3.92;2.25;;;;;;;19.40;25.95;101971.69;5020364;28;20020;-89
2022/04/10 11:08:55;;;;;;;5.22;2.10;;;;;;;21.21;22.80;101952.91;5031237;28;20060;-90
2022/04/10 11:11:20;;;;;;;4.88;1.90;;;;;;;22.65;22.10;101960.22;5003254;28;20391;-89
2022/04/10 11:13:46;;;;;;;6.75;3.20;;;;;;;22.06;20.88;101966.00;5026323;28;20101;-91
2022/04/10 11:16:14;;;;;;;2.70;1.33;;;;;;;19.62;23.41;101972.91;5030335;28;20056;-90
2022/04/10 11:18:49;;;;;;;2.40;1.42;;;;;;;18.01;25.67;101972.06;5025859;28;20142;-90
2022/04/10 11:21:18;;;;;;;3.70;1.90;;;;;;;17.53;25.81;101966.97;5029068;28;20029;-89